sensor_id;sensor_type;location;lat;lon;timestamp;P1;durP1;ratioP1;P2;durP2;ratioP2
64291;SDS011;50628;51.008;13.658;2023-06-24T00:01:31;12.43;;;8.70;;
64291;SDS011;50628;51.008;13.658;2023-06-24T00:06:33;10.52;;;8.80;;
64291;SDS011;50628;51.008;13.658;2023-06-24T00:11:37;13.02;;;9.40;;
64291;SDS011;50628;51.008;13.658;2023-06-24T00:16:40;10.93;;;8.88;;
64291;SDS011;50628;51.008;13.658;2023-06-24T00:21:42;12.02;;;9.25;;
64291;SDS011;50628;51.008;13.658;2023-06-24T00:26:45;13.93;;;10.13;;
64291;SDS011;50628;51.008;13.658;2023-06-24T00:31:48;17.92;;;10.82;;
64291;SDS011;50628;51.008;13.658;2023-06-24T00:36:50;13.07;;;10.98;;
64291;SDS011;50628;51.008;13.658;2023-06-24T00:41:53;17.52;;;11.45;;
64291;SDS011;50628;51.008;13.658;2023-06-24T00:46:57;16.00;;;11.15;;
64291;SDS011;50628;51.008;13.658;2023-06-24T00:51:59;16.50;;;11.63;;
64291;SDS011;50628;51.008;13.658;2023-06-24T00:57:01;15.18;;;11.82;;
64291;SDS011;50628;51.008;13.658;2023-06-24T01:02:05;16.67;;;12.85;;
64291;SDS011;50628;51.008;13.658;2023-06-24T01:07:08;15.43;;;13.02;;
64291;SDS011;50628;51.008;13.658;2023-06-24T01:12:10;19.05;;;15.02;;
64291;SDS011;50628;51.008;13.658;2023-06-24T01:17:14;18.02;;;14.38;;
64291;SDS011;50628;51.008;13.658;2023-06-24T01:22:25;20.05;;;15.38;;
64291;SDS011;50628;51.008;13.658;2023-06-24T01:27:45;17.08;;;14.80;;
64291;SDS011;50628;51.008;13.658;2023-06-24T01:33:01;22.33;;;15.15;;
64291;SDS011;50628;51.008;13.658;2023-06-24T01:38:10;18.25;;;15.30;;
64291;SDS011;50628;51.008;13.658;2023-06-24T01:43:18;20.80;;;15.30;;
64291;SDS011;50628;51.008;13.658;2023-06-24T01:48:25;17.63;;;15.07;;
64291;SDS011;50628;51.008;13.658;2023-06-24T01:53:31;23.38;;;16.27;;
64291;SDS011;50628;51.008;13.658;2023-06-24T01:58:36;20.75;;;16.38;;
64291;SDS011;50628;51.008;13.658;2023-06-24T02:03:41;21.67;;;16.63;;
64291;SDS011;50628;51.008;13.658;2023-06-24T02:08:44;22.75;;;16.85;;
64291;SDS011;50628;51.008;13.658;2023-06-24T02:13:49;22.30;;;16.27;;
64291;SDS011;50628;51.008;13.658;2023-06-24T02:18:55;22.23;;;15.73;;
64291;SDS011;50628;51.008;13.658;2023-06-24T02:23:59;21.45;;;16.52;;
64291;SDS011;50628;51.008;13.658;2023-06-24T02:29:06;20.77;;;16.60;;
64291;SDS011;50628;51.008;13.658;2023-06-24T02:34:12;21.27;;;16.00;;
64291;SDS011;50628;51.008;13.658;2023-06-24T02:39:14;23.70;;;15.93;;
64291;SDS011;50628;51.008;13.658;2023-06-24T02:44:16;27.55;;;18.30;;
64291;SDS011;50628;51.008;13.658;2023-06-24T02:49:20;23.85;;;17.50;;
64291;SDS011;50628;51.008;13.658;2023-06-24T02:54:23;23.85;;;18.55;;
64291;SDS011;50628;51.008;13.658;2023-06-24T02:59:45;23.08;;;16.02;;
64291;SDS011;50628;51.008;13.658;2023-06-24T03:04:50;23.02;;;16.25;;
64291;SDS011;50628;51.008;13.658;2023-06-24T03:09:54;19.58;;;15.57;;
64291;SDS011;50628;51.008;13.658;2023-06-24T03:14:56;21.77;;;14.85;;
64291;SDS011;50628;51.008;13.658;2023-06-24T03:20:02;22.05;;;15.07;;
64291;SDS011;50628;51.008;13.658;2023-06-24T03:25:07;23.42;;;15.30;;
64291;SDS011;50628;51.008;13.658;2023-06-24T03:30:11;24.02;;;14.52;;
64291;SDS011;50628;51.008;13.658;2023-06-24T03:35:17;19.15;;;14.65;;
64291;SDS011;50628;51.008;13.658;2023-06-24T03:40:19;21.65;;;14.00;;
64291;SDS011;50628;51.008;13.658;2023-06-24T03:45:22;16.73;;;13.13;;
64291;SDS011;50628;51.008;13.658;2023-06-24T03:50:26;18.90;;;14.35;;
64291;SDS011;50628;51.008;13.658;2023-06-24T03:55:28;18.92;;;13.30;;
64291;SDS011;50628;51.008;13.658;2023-06-24T04:00:29;18.88;;;12.95;;
64291;SDS011;50628;51.008;13.658;2023-06-24T04:05:33;19.48;;;12.98;;
64291;SDS011;50628;51.008;13.658;2023-06-24T04:15:38;17.40;;;12.45;;
64291;SDS011;50628;51.008;13.658;2023-06-24T04:20:41;18.50;;;12.30;;
64291;SDS011;50628;51.008;13.658;2023-06-24T04:25:44;14.75;;;11.68;;
64291;SDS011;50628;51.008;13.658;2023-06-24T04:30:46;15.38;;;12.20;;
64291;SDS011;50628;51.008;13.658;2023-06-24T04:35:49;16.35;;;12.52;;
64291;SDS011;50628;51.008;13.658;2023-06-24T04:40:51;16.15;;;14.35;;
64291;SDS011;50628;51.008;13.658;2023-06-24T04:45:53;16.58;;;13.93;;
64291;SDS011;50628;51.008;13.658;2023-06-24T04:50:57;25.92;;;18.20;;
64291;SDS011;50628;51.008;13.658;2023-06-24T04:55:59;28.35;;;19.15;;
64291;SDS011;50628;51.008;13.658;2023-06-24T05:01:00;28.83;;;21.15;;
64291;SDS011;50628;51.008;13.658;2023-06-24T05:06:04;24.67;;;20.27;;
64291;SDS011;50628;51.008;13.658;2023-06-24T05:11:06;27.27;;;22.23;;
64291;SDS011;50628;51.008;13.658;2023-06-24T05:16:07;27.67;;;22.50;;
64291;SDS011;50628;51.008;13.658;2023-06-24T05:21:11;28.25;;;21.85;;
64291;SDS011;50628;51.008;13.658;2023-06-24T05:26:13;29.35;;;23.17;;
64291;SDS011;50628;51.008;13.658;2023-06-24T05:31:15;27.70;;;21.73;;
64291;SDS011;50628;51.008;13.658;2023-06-24T05:36:18;29.05;;;23.90;;
64291;SDS011;50628;51.008;13.658;2023-06-24T05:41:20;29.52;;;22.08;;
64291;SDS011;50628;51.008;13.658;2023-06-24T05:46:22;28.35;;;21.75;;
64291;SDS011;50628;51.008;13.658;2023-06-24T05:51:25;29.40;;;23.15;;
64291;SDS011;50628;51.008;13.658;2023-06-24T05:56:27;25.45;;;22.48;;
64291;SDS011;50628;51.008;13.658;2023-06-24T06:01:29;30.52;;;22.55;;
64291;SDS011;50628;51.008;13.658;2023-06-24T06:06:32;34.13;;;25.38;;
64291;SDS011;50628;51.008;13.658;2023-06-24T06:11:34;33.38;;;24.27;;
64291;SDS011;50628;51.008;13.658;2023-06-24T06:16:36;26.60;;;22.45;;
64291;SDS011;50628;51.008;13.658;2023-06-24T06:21:39;27.15;;;20.35;;
64291;SDS011;50628;51.008;13.658;2023-06-24T06:26:41;22.88;;;18.83;;
64291;SDS011;50628;51.008;13.658;2023-06-24T06:31:44;25.13;;;17.20;;
64291;SDS011;50628;51.008;13.658;2023-06-24T06:36:47;24.92;;;17.67;;
64291;SDS011;50628;51.008;13.658;2023-06-24T06:41:49;21.45;;;15.57;;
64291;SDS011;50628;51.008;13.658;2023-06-24T06:46:51;20.60;;;15.60;;
64291;SDS011;50628;51.008;13.658;2023-06-24T06:51:55;20.20;;;14.35;;
64291;SDS011;50628;51.008;13.658;2023-06-24T06:56:59;18.02;;;13.48;;
64291;SDS011;50628;51.008;13.658;2023-06-24T07:02:02;15.93;;;12.27;;
64291;SDS011;50628;51.008;13.658;2023-06-24T07:07:05;18.65;;;13.13;;
64291;SDS011;50628;51.008;13.658;2023-06-24T07:12:07;14.45;;;12.48;;
64291;SDS011;50628;51.008;13.658;2023-06-24T07:17:10;14.13;;;11.43;;
64291;SDS011;50628;51.008;13.658;2023-06-24T07:22:13;13.13;;;9.95;;
64291;SDS011;50628;51.008;13.658;2023-06-24T07:27:15;16.17;;;10.40;;
64291;SDS011;50628;51.008;13.658;2023-06-24T07:32:17;12.10;;;9.73;;
64291;SDS011;50628;51.008;13.658;2023-06-24T07:37:20;16.15;;;9.65;;
64291;SDS011;50628;51.008;13.658;2023-06-24T07:42:22;14.45;;;9.38;;
64291;SDS011;50628;51.008;13.658;2023-06-24T07:47:24;15.55;;;10.43;;
64291;SDS011;50628;51.008;13.658;2023-06-24T07:52:27;9.75;;;8.75;;
64291;SDS011;50628;51.008;13.658;2023-06-24T07:57:29;11.10;;;8.55;;
64291;SDS011;50628;51.008;13.658;2023-06-24T08:02:31;9.48;;;7.43;;
64291;SDS011;50628;51.008;13.658;2023-06-24T08:07:34;21.73;;;9.80;;
64291;SDS011;50628;51.008;13.658;2023-06-24T08:12:36;14.80;;;7.55;;
64291;SDS011;50628;51.008;13.658;2023-06-24T08:17:38;13.55;;;7.15;;
64291;SDS011;50628;51.008;13.658;2023-06-24T08:22:41;8.10;;;7.10;;
64291;SDS011;50628;51.008;13.658;2023-06-24T08:27:43;10.68;;;6.43;;
64291;SDS011;50628;51.008;13.658;2023-06-24T08:32:46;9.73;;;6.40;;
64291;SDS011;50628;51.008;13.658;2023-06-24T08:37:50;10.82;;;5.90;;
64291;SDS011;50628;51.008;13.658;2023-06-24T08:42:51;11.57;;;5.20;;
64291;SDS011;50628;51.008;13.658;2023-06-24T08:47:54;8.70;;;4.60;;
64291;SDS011;50628;51.008;13.658;2023-06-24T08:52:58;6.95;;;4.72;;
64291;SDS011;50628;51.008;13.658;2023-06-24T08:58:04;5.50;;;4.32;;
64291;SDS011;50628;51.008;13.658;2023-06-24T09:03:06;6.70;;;4.85;;
64291;SDS011;50628;51.008;13.658;2023-06-24T09:08:09;5.22;;;4.10;;
64291;SDS011;50628;51.008;13.658;2023-06-24T09:13:11;7.40;;;3.88;;
64291;SDS011;50628;51.008;13.658;2023-06-24T09:18:12;4.28;;;3.88;;
64291;SDS011;50628;51.008;13.658;2023-06-24T09:23:18;6.03;;;4.57;;
64291;SDS011;50628;51.008;13.658;2023-06-24T09:28:20;6.18;;;5.00;;
64291;SDS011;50628;51.008;13.658;2023-06-24T09:33:22;6.40;;;4.40;;
64291;SDS011;50628;51.008;13.658;2023-06-24T09:38:32;6.97;;;4.28;;
64291;SDS011;50628;51.008;13.658;2023-06-24T09:43:36;7.88;;;4.50;;
64291;SDS011;50628;51.008;13.658;2023-06-24T09:48:40;6.85;;;4.57;;
64291;SDS011;50628;51.008;13.658;2023-06-24T09:53:43;5.82;;;3.70;;
64291;SDS011;50628;51.008;13.658;2023-06-24T09:58:45;9.90;;;4.30;;
64291;SDS011;50628;51.008;13.658;2023-06-24T10:03:48;6.07;;;4.50;;
64291;SDS011;50628;51.008;13.658;2023-06-24T10:08:52;6.32;;;4.40;;
64291;SDS011;50628;51.008;13.658;2023-06-24T10:13:54;6.47;;;5.07;;
64291;SDS011;50628;51.008;13.658;2023-06-24T10:18:59;5.25;;;3.67;;
64291;SDS011;50628;51.008;13.658;2023-06-24T10:24:04;7.70;;;4.25;;
64291;SDS011;50628;51.008;13.658;2023-06-24T10:29:10;5.47;;;4.35;;
64291;SDS011;50628;51.008;13.658;2023-06-24T10:34:20;4.38;;;3.97;;
64291;SDS011;50628;51.008;13.658;2023-06-24T10:39:38;5.00;;;4.30;;
64291;SDS011;50628;51.008;13.658;2023-06-24T10:44:44;13.77;;;5.30;;
64291;SDS011;50628;51.008;13.658;2023-06-24T10:49:47;10.60;;;6.05;;
64291;SDS011;50628;51.008;13.658;2023-06-24T10:54:50;9.55;;;4.55;;
64291;SDS011;50628;51.008;13.658;2023-06-24T10:59:53;6.40;;;4.00;;
64291;SDS011;50628;51.008;13.658;2023-06-24T11:04:56;5.25;;;3.90;;
64291;SDS011;50628;51.008;13.658;2023-06-24T11:10:03;10.77;;;4.45;;
64291;SDS011;50628;51.008;13.658;2023-06-24T11:15:07;11.95;;;4.53;;
64291;SDS011;50628;51.008;13.658;2023-06-24T11:20:11;7.68;;;4.57;;
64291;SDS011;50628;51.008;13.658;2023-06-24T11:25:17;4.55;;;4.03;;
64291;SDS011;50628;51.008;13.658;2023-06-24T11:30:20;8.32;;;4.68;;
64291;SDS011;50628;51.008;13.658;2023-06-24T11:35:22;7.28;;;4.70;;
64291;SDS011;50628;51.008;13.658;2023-06-24T11:40:25;6.63;;;4.70;;
64291;SDS011;50628;51.008;13.658;2023-06-24T11:45:27;5.85;;;4.28;;
64291;SDS011;50628;51.008;13.658;2023-06-24T11:50:29;4.15;;;3.78;;
64291;SDS011;50628;51.008;13.658;2023-06-24T11:55:32;8.65;;;3.83;;
64291;SDS011;50628;51.008;13.658;2023-06-24T12:00:35;5.30;;;3.75;;
64291;SDS011;50628;51.008;13.658;2023-06-24T12:05:38;14.55;;;9.98;;
64291;SDS011;50628;51.008;13.658;2023-06-24T12:10:46;5.78;;;4.15;;
64291;SDS011;50628;51.008;13.658;2023-06-24T12:15:48;5.30;;;3.65;;
64291;SDS011;50628;51.008;13.658;2023-06-24T12:20:49;4.43;;;3.42;;
64291;SDS011;50628;51.008;13.658;2023-06-24T12:25:53;6.35;;;3.90;;
64291;SDS011;50628;51.008;13.658;2023-06-24T12:30:55;4.50;;;3.17;;
64291;SDS011;50628;51.008;13.658;2023-06-24T12:35:58;5.53;;;4.18;;
64291;SDS011;50628;51.008;13.658;2023-06-24T12:41:01;4.65;;;3.45;;
64291;SDS011;50628;51.008;13.658;2023-06-24T12:46:03;10.45;;;8.15;;
64291;SDS011;50628;51.008;13.658;2023-06-24T12:51:05;6.47;;;3.63;;
64291;SDS011;50628;51.008;13.658;2023-06-24T12:56:09;7.13;;;4.13;;
64291;SDS011;50628;51.008;13.658;2023-06-24T13:01:16;6.43;;;5.40;;
64291;SDS011;50628;51.008;13.658;2023-06-24T13:06:19;5.60;;;3.25;;
64291;SDS011;50628;51.008;13.658;2023-06-24T13:11:25;6.88;;;3.35;;
64291;SDS011;50628;51.008;13.658;2023-06-24T13:16:27;6.15;;;3.95;;
64291;SDS011;50628;51.008;13.658;2023-06-24T13:21:29;3.58;;;3.22;;
64291;SDS011;50628;51.008;13.658;2023-06-24T13:26:39;5.32;;;3.10;;
64291;SDS011;50628;51.008;13.658;2023-06-24T13:31:44;7.65;;;3.30;;
64291;SDS011;50628;51.008;13.658;2023-06-24T13:36:46;4.13;;;3.00;;
64291;SDS011;50628;51.008;13.658;2023-06-24T13:41:50;5.03;;;3.00;;
64291;SDS011;50628;51.008;13.658;2023-06-24T13:46:54;4.53;;;2.92;;
64291;SDS011;50628;51.008;13.658;2023-06-24T13:51:58;2.42;;;2.20;;
64291;SDS011;50628;51.008;13.658;2023-06-24T13:57:02;9.55;;;2.90;;
64291;SDS011;50628;51.008;13.658;2023-06-24T14:02:04;3.75;;;2.30;;
64291;SDS011;50628;51.008;13.658;2023-06-24T14:07:11;4.00;;;3.22;;
64291;SDS011;50628;51.008;13.658;2023-06-24T14:12:14;4.18;;;2.75;;
64291;SDS011;50628;51.008;13.658;2023-06-24T14:17:16;2.90;;;2.55;;
64291;SDS011;50628;51.008;13.658;2023-06-24T14:22:18;2.95;;;2.42;;
64291;SDS011;50628;51.008;13.658;2023-06-24T14:27:23;4.65;;;2.80;;
64291;SDS011;50628;51.008;13.658;2023-06-24T14:32:24;5.47;;;3.05;;
64291;SDS011;50628;51.008;13.658;2023-06-24T14:37:27;4.68;;;3.15;;
64291;SDS011;50628;51.008;13.658;2023-06-24T14:42:30;5.28;;;2.53;;
64291;SDS011;50628;51.008;13.658;2023-06-24T14:47:33;6.35;;;2.85;;
64291;SDS011;50628;51.008;13.658;2023-06-24T14:52:35;2.70;;;2.35;;
64291;SDS011;50628;51.008;13.658;2023-06-24T14:57:38;4.15;;;2.60;;
64291;SDS011;50628;51.008;13.658;2023-06-24T15:02:40;4.20;;;2.72;;
64291;SDS011;50628;51.008;13.658;2023-06-24T15:07:44;4.30;;;2.63;;
64291;SDS011;50628;51.008;13.658;2023-06-24T15:12:49;5.20;;;2.88;;
64291;SDS011;50628;51.008;13.658;2023-06-24T15:17:51;5.47;;;3.10;;
64291;SDS011;50628;51.008;13.658;2023-06-24T15:22:53;4.25;;;2.50;;
64291;SDS011;50628;51.008;13.658;2023-06-24T15:27:57;5.28;;;2.50;;
64291;SDS011;50628;51.008;13.658;2023-06-24T15:33:02;3.70;;;2.55;;
64291;SDS011;50628;51.008;13.658;2023-06-24T15:38:04;4.72;;;2.80;;
64291;SDS011;50628;51.008;13.658;2023-06-24T15:43:10;4.40;;;2.40;;
64291;SDS011;50628;51.008;13.658;2023-06-24T15:48:15;4.45;;;3.10;;
64291;SDS011;50628;51.008;13.658;2023-06-24T15:53:18;3.28;;;2.50;;
64291;SDS011;50628;51.008;13.658;2023-06-24T15:58:24;2.67;;;2.47;;
64291;SDS011;50628;51.008;13.658;2023-06-24T16:03:28;5.45;;;3.30;;
64291;SDS011;50628;51.008;13.658;2023-06-24T16:08:32;5.03;;;2.83;;
64291;SDS011;50628;51.008;13.658;2023-06-24T16:13:36;3.55;;;2.95;;
64291;SDS011;50628;51.008;13.658;2023-06-24T16:18:38;3.70;;;3.10;;
64291;SDS011;50628;51.008;13.658;2023-06-24T16:23:40;3.00;;;2.55;;
64291;SDS011;50628;51.008;13.658;2023-06-24T16:28:43;3.53;;;2.65;;
64291;SDS011;50628;51.008;13.658;2023-06-24T16:33:45;5.95;;;3.15;;
64291;SDS011;50628;51.008;13.658;2023-06-24T16:38:47;4.88;;;2.65;;
64291;SDS011;50628;51.008;13.658;2023-06-24T16:43:51;5.10;;;2.80;;
64291;SDS011;50628;51.008;13.658;2023-06-24T16:48:52;3.33;;;2.78;;
64291;SDS011;50628;51.008;13.658;2023-06-24T16:53:54;4.68;;;3.72;;
64291;SDS011;50628;51.008;13.658;2023-06-24T16:58:57;3.40;;;3.10;;
64291;SDS011;50628;51.008;13.658;2023-06-24T17:03:59;3.13;;;2.53;;
64291;SDS011;50628;51.008;13.658;2023-06-24T17:09:01;4.10;;;2.50;;
64291;SDS011;50628;51.008;13.658;2023-06-24T17:14:05;4.40;;;2.60;;
64291;SDS011;50628;51.008;13.658;2023-06-24T17:19:07;2.08;;;1.88;;
64291;SDS011;50628;51.008;13.658;2023-06-24T17:24:09;2.60;;;2.40;;
64291;SDS011;50628;51.008;13.658;2023-06-24T17:29:12;2.42;;;2.22;;
64291;SDS011;50628;51.008;13.658;2023-06-24T17:34:15;4.13;;;2.47;;
64291;SDS011;50628;51.008;13.658;2023-06-24T17:39:17;2.53;;;2.30;;
64291;SDS011;50628;51.008;13.658;2023-06-24T17:44:21;3.58;;;3.03;;
64291;SDS011;50628;51.008;13.658;2023-06-24T17:49:23;5.63;;;3.60;;
64291;SDS011;50628;51.008;13.658;2023-06-24T17:54:25;5.57;;;3.30;;
64291;SDS011;50628;51.008;13.658;2023-06-24T17:59:28;4.68;;;2.65;;
64291;SDS011;50628;51.008;13.658;2023-06-24T18:04:31;5.80;;;2.67;;
64291;SDS011;50628;51.008;13.658;2023-06-24T18:09:32;5.03;;;4.03;;
64291;SDS011;50628;51.008;13.658;2023-06-24T18:14:36;5.55;;;3.22;;
64291;SDS011;50628;51.008;13.658;2023-06-24T18:19:37;4.03;;;2.88;;
64291;SDS011;50628;51.008;13.658;2023-06-24T18:24:43;6.65;;;3.40;;
64291;SDS011;50628;51.008;13.658;2023-06-24T18:29:46;3.85;;;3.10;;
64291;SDS011;50628;51.008;13.658;2023-06-24T18:34:48;3.70;;;3.03;;
64291;SDS011;50628;51.008;13.658;2023-06-24T18:39:50;9.55;;;6.28;;
64291;SDS011;50628;51.008;13.658;2023-06-24T18:44:54;6.45;;;4.32;;
64291;SDS011;50628;51.008;13.658;2023-06-24T18:49:56;6.00;;;3.63;;
64291;SDS011;50628;51.008;13.658;2023-06-24T18:54:57;6.70;;;3.33;;
64291;SDS011;50628;51.008;13.658;2023-06-24T19:00:01;7.25;;;3.58;;
64291;SDS011;50628;51.008;13.658;2023-06-24T19:05:03;6.65;;;4.15;;
64291;SDS011;50628;51.008;13.658;2023-06-24T19:10:05;4.95;;;3.47;;
64291;SDS011;50628;51.008;13.658;2023-06-24T19:15:09;3.75;;;3.30;;
64291;SDS011;50628;51.008;13.658;2023-06-24T19:20:11;6.65;;;4.30;;
64291;SDS011;50628;51.008;13.658;2023-06-24T19:25:13;6.55;;;3.92;;
64291;SDS011;50628;51.008;13.658;2023-06-24T19:30:17;5.50;;;3.47;;
64291;SDS011;50628;51.008;13.658;2023-06-24T19:35:18;4.88;;;3.65;;
64291;SDS011;50628;51.008;13.658;2023-06-24T19:40:20;4.93;;;3.60;;
64291;SDS011;50628;51.008;13.658;2023-06-24T19:45:24;5.75;;;4.40;;
64291;SDS011;50628;51.008;13.658;2023-06-24T19:50:26;5.65;;;4.03;;
64291;SDS011;50628;51.008;13.658;2023-06-24T19:55:28;6.00;;;4.78;;
64291;SDS011;50628;51.008;13.658;2023-06-24T20:00:31;7.82;;;5.15;;
64291;SDS011;50628;51.008;13.658;2023-06-24T20:05:33;6.75;;;5.90;;
64291;SDS011;50628;51.008;13.658;2023-06-24T20:10:34;9.05;;;6.47;;
64291;SDS011;50628;51.008;13.658;2023-06-24T20:15:38;8.35;;;6.22;;
64291;SDS011;50628;51.008;13.658;2023-06-24T20:20:39;9.20;;;6.50;;
64291;SDS011;50628;51.008;13.658;2023-06-24T20:25:41;7.68;;;6.88;;
64291;SDS011;50628;51.008;13.658;2023-06-24T20:30:44;8.02;;;7.22;;
64291;SDS011;50628;51.008;13.658;2023-06-24T20:35:47;8.90;;;7.05;;
64291;SDS011;50628;51.008;13.658;2023-06-24T20:40:49;13.25;;;7.35;;
64291;SDS011;50628;51.008;13.658;2023-06-24T20:45:52;9.13;;;7.45;;
64291;SDS011;50628;51.008;13.658;2023-06-24T20:50:55;10.95;;;6.45;;
64291;SDS011;50628;51.008;13.658;2023-06-24T20:55:57;8.65;;;6.40;;
64291;SDS011;50628;51.008;13.658;2023-06-24T21:01:00;11.85;;;6.80;;
64291;SDS011;50628;51.008;13.658;2023-06-24T21:06:02;9.32;;;6.93;;
64291;SDS011;50628;51.008;13.658;2023-06-24T21:11:04;9.25;;;7.10;;
64291;SDS011;50628;51.008;13.658;2023-06-24T21:16:07;10.23;;;7.00;;
64291;SDS011;50628;51.008;13.658;2023-06-24T21:21:09;8.57;;;7.65;;
64291;SDS011;50628;51.008;13.658;2023-06-24T21:26:11;9.90;;;6.93;;
64291;SDS011;50628;51.008;13.658;2023-06-24T21:31:14;9.88;;;7.10;;
64291;SDS011;50628;51.008;13.658;2023-06-24T21:36:16;10.10;;;6.97;;
64291;SDS011;50628;51.008;13.658;2023-06-24T21:41:18;10.45;;;7.47;;
64291;SDS011;50628;51.008;13.658;2023-06-24T21:46:21;9.05;;;6.90;;
64291;SDS011;50628;51.008;13.658;2023-06-24T21:51:23;9.27;;;7.28;;
64291;SDS011;50628;51.008;13.658;2023-06-24T21:56:25;12.13;;;7.40;;
64291;SDS011;50628;51.008;13.658;2023-06-24T22:01:28;8.18;;;7.38;;
64291;SDS011;50628;51.008;13.658;2023-06-24T22:06:31;9.32;;;8.32;;
64291;SDS011;50628;51.008;13.658;2023-06-24T22:11:33;10.88;;;8.55;;
64291;SDS011;50628;51.008;13.658;2023-06-24T22:16:36;8.85;;;7.70;;
64291;SDS011;50628;51.008;13.658;2023-06-24T22:21:38;14.07;;;11.68;;
64291;SDS011;50628;51.008;13.658;2023-06-24T22:26:41;10.63;;;9.52;;
64291;SDS011;50628;51.008;13.658;2023-06-24T22:31:45;13.95;;;9.13;;
64291;SDS011;50628;51.008;13.658;2023-06-24T22:36:47;8.75;;;7.80;;
64291;SDS011;50628;51.008;13.658;2023-06-24T22:41:48;9.50;;;7.40;;
64291;SDS011;50628;51.008;13.658;2023-06-24T22:46:52;10.23;;;8.50;;
64291;SDS011;50628;51.008;13.658;2023-06-24T22:51:53;9.90;;;8.90;;
64291;SDS011;50628;51.008;13.658;2023-06-24T22:56:55;13.27;;;9.52;;
64291;SDS011;50628;51.008;13.658;2023-06-24T23:01:59;10.75;;;9.48;;
64291;SDS011;50628;51.008;13.658;2023-06-24T23:07:01;10.63;;;9.38;;
64291;SDS011;50628;51.008;13.658;2023-06-24T23:12:04;8.98;;;8.05;;
64291;SDS011;50628;51.008;13.658;2023-06-24T23:17:08;9.50;;;7.88;;
64291;SDS011;50628;51.008;13.658;2023-06-24T23:22:17;8.52;;;7.65;;
64291;SDS011;50628;51.008;13.658;2023-06-24T23:27:20;11.02;;;9.27;;
64291;SDS011;50628;51.008;13.658;2023-06-24T23:32:30;11.55;;;8.40;;
64291;SDS011;50628;51.008;13.658;2023-06-24T23:37:36;11.32;;;8.13;;
64291;SDS011;50628;51.008;13.658;2023-06-24T23:42:40;9.30;;;8.32;;
64291;SDS011;50628;51.008;13.658;2023-06-24T23:47:45;11.43;;;7.95;;
64291;SDS011;50628;51.008;13.658;2023-06-24T23:52:47;11.73;;;7.72;;
64291;SDS011;50628;51.008;13.658;2023-06-24T23:57:49;9.40;;;8.50;;
